Time;durP1;ratioP1;P1;durP2;ratioP2;P2;SDS_P1;SDS_P2;PMS_P1;PMS_P2;Temp;Humidity;BMP_temperature;BMP_pressure;BME280_temperature;BME280_humidity;BME280_pressure;Samples;Min_cycle;Max_cycle;Signal;HPM_P1;HPM_P2
2022/07/09 00:01:59;;;;;;;3.67;2.10;;;22.00;56.70;;;;;;10133473;28;20103;-57
2022/07/09 00:06:51;;;;;;;2.78;1.75;;;22.00;56.90;;;;;;10132730;28;20032;-57
2022/07/09 00:11:42;;;;;;;4.75;1.80;;;22.20;56.90;;;;;;10132431;28;20086;-57
2022/07/09 00:16:32;;;;;;;4.32;2.13;;;22.00;57.10;;;;;;10132199;28;20384;-58
2022/07/09 00:21:23;;;;;;;6.15;2.10;;;22.20;57.20;;;;;;10131825;28;20522;-59
2022/07/09 00:26:14;;;;;;;2.03;1.92;;;22.00;57.40;;;;;;10132683;28;20024;-56
2022/07/09 00:31:05;;;;;;;4.65;1.77;;;22.10;57.60;;;;;;10131620;28;20400;-55
2022/07/09 00:35:55;;;;;;;3.75;1.88;;;22.10;57.60;;;;;;10131931;28;20510;-54
2022/07/09 00:40:46;;;;;;;3.78;2.03;;;22.20;57.60;;;;;;10131309;28;20426;-59
2022/07/09 00:45:36;;;;;;;5.75;2.15;;;22.20;57.50;;;;;;10132241;28;20094;-56
2022/07/09 00:50:27;;;;;;;4.63;2.20;;;22.00;57.90;;;;;;10138163;28;20358;-61
2022/07/09 00:55:18;;;;;;;6.30;3.45;;;21.90;58.30;;;;;;10139099;28;20024;-58
2022/07/09 01:00:09;;;;;;;2.30;1.85;;;21.70;58.70;;;;;;10138767;28;20060;-57
2022/07/09 01:05:00;;;;;;;2.63;1.73;;;21.90;58.60;;;;;;10140035;28;20028;-57
2022/07/09 01:09:50;;;;;;;4.63;2.15;;;21.70;58.80;;;;;;10138703;28;20098;-59
2022/07/09 01:14:41;;;;;;;5.03;1.80;;;21.60;58.90;;;;;;10138826;28;20036;-59
2022/07/09 01:19:33;;;;;;;3.90;2.22;;;21.70;59.10;;;;;;10138912;28;20236;-59
2022/07/09 01:24:24;;;;;;;4.15;2.10;;;21.50;59.60;;;;;;10138978;28;20024;-59
2022/07/09 01:29:15;;;;;;;2.60;1.85;;;21.50;59.70;;;;;;10119357;28;20044;-58
2022/07/09 01:34:06;;;;;;;3.80;2.00;;;21.60;59.80;;;;;;10138288;28;20042;-59
2022/07/09 01:38:57;;;;;;;2.15;1.60;;;21.30;60.40;;;;;;10138428;28;20562;-60
2022/07/09 01:43:48;;;;;;;3.58;1.90;;;21.30;60.70;;;;;;10137750;28;20119;-57
2022/07/09 01:48:42;;;;;;;2.90;1.80;;;21.30;60.80;;;;;;10136458;28;20024;-61
2022/07/09 01:53:33;;;;;;;4.28;1.77;;;21.30;61.00;;;;;;10137556;28;20179;-60
2022/07/09 01:58:24;;;;;;;5.50;2.80;;;21.10;61.00;;;;;;10135912;28;20025;-60
2022/07/09 02:03:14;;;;;;;5.05;2.28;;;21.00;61.20;;;;;;10136845;28;20024;-59
2022/07/09 02:08:05;;;;;;;4.20;1.70;;;21.00;61.30;;;;;;10136898;28;20284;-61
2022/07/09 02:12:56;;;;;;;3.65;1.70;;;21.10;61.50;;;;;;10136802;28;20041;-59
2022/07/09 02:17:46;;;;;;;4.63;1.92;;;21.00;61.50;;;;;;10136541;28;20021;-59
2022/07/09 02:22:38;;;;;;;4.18;2.28;;;20.80;61.90;;;;;;10137201;28;20029;-56
2022/07/09 02:27:29;;;;;;;2.55;2.30;;;20.90;61.80;;;;;;10136567;28;20016;-59
2022/07/09 02:32:19;;;;;;;4.80;2.33;;;20.70;62.20;;;;;;10118382;28;20045;-58
2022/07/09 02:37:10;;;;;;;3.53;2.40;;;20.90;62.10;;;;;;10134580;28;20013;-57
2022/07/09 02:42:00;;;;;;;3.13;1.70;;;20.80;61.90;;;;;;10134628;28;20115;-58
2022/07/09 02:46:51;;;;;;;5.00;1.95;;;20.70;62.30;;;;;;10136449;28;20029;-58
2022/07/09 02:51:42;;;;;;;3.90;1.88;;;20.70;62.20;;;;;;10118689;28;20499;-58
2022/07/09 02:56:33;;;;;;;4.55;2.25;;;20.80;62.00;;;;;;10135881;28;20383;-56
2022/07/09 03:01:24;;;;;;;3.38;1.67;;;20.90;62.10;;;;;;10135660;28;20037;-58
2022/07/09 03:06:14;;;;;;;3.20;2.83;;;20.70;62.20;;;;;;10134136;28;20013;-56
2022/07/09 03:11:09;;;;;;;3.50;2.20;;;20.80;62.30;;;;;;10132548;28;20040;-56
2022/07/09 03:15:59;;;;;;;2.10;1.80;;;20.60;62.50;;;;;;10134552;28;20136;-58
2022/07/09 03:20:50;;;;;;;3.38;2.63;;;20.70;62.30;;;;;;10134302;28;20043;-56
2022/07/09 03:25:41;;;;;;;4.03;2.15;;;20.70;62.50;;;;;;10133888;28;20041;-57
2022/07/09 03:30:32;;;;;;;2.13;1.80;;;20.70;62.40;;;;;;10133148;28;20513;-57
2022/07/09 03:35:22;;;;;;;3.70;2.15;;;20.70;62.40;;;;;;10133145;28;20044;-52
2022/07/09 03:40:13;;;;;;;4.07;2.08;;;20.70;62.60;;;;;;10133608;28;20030;-58
2022/07/09 03:45:04;;;;;;;9.25;2.03;;;20.70;62.70;;;;;;10133267;28;20460;-57
2022/07/09 03:49:55;;;;;;;3.78;1.90;;;20.70;62.90;;;;;;10131820;28;20040;-56
2022/07/09 03:54:45;;;;;;;2.80;1.67;;;20.50;63.30;;;;;;10114807;28;20020;-59
2022/07/09 03:59:36;;;;;;;4.00;1.90;;;20.50;63.40;;;;;;10132500;28;20411;-59
2022/07/09 04:04:27;;;;;;;5.85;2.33;;;20.50;63.50;;;;;;10132550;28;20025;-59
2022/07/09 04:09:17;;;;;;;2.17;1.88;;;20.40;63.80;;;;;;10132582;28;20051;-58
2022/07/09 04:14:08;;;;;;;4.05;1.95;;;20.30;63.90;;;;;;10132708;28;20232;-56
2022/07/09 04:18:59;;;;;;;3.60;2.40;;;20.30;64.30;;;;;;10131848;28;20081;-56
2022/07/09 04:23:51;;;;;;;6.45;2.25;;;20.30;64.20;;;;;;10131287;28;20378;-58
2022/07/09 04:28:42;;;;;;;2.78;2.10;;;20.30;64.60;;;;;;10131591;28;20236;-59
2022/07/09 04:33:32;;;;;;;4.78;2.55;;;20.30;64.60;;;;;;10131703;28;20040;-57
2022/07/09 04:38:24;;;;;;;5.03;2.22;;;20.20;64.90;;;;;;10131918;28;20407;-58
2022/07/09 04:43:15;;;;;;;2.53;1.73;;;20.10;65.20;;;;;;10132583;28;20495;-56
2022/07/09 04:48:05;;;;;;;3.63;1.85;;;20.20;65.20;;;;;;10131000;28;20107;-57
2022/07/09 04:52:56;;;;;;;3.83;2.25;;;20.10;65.50;;;;;;10131449;28;20064;-58
2022/07/09 04:57:47;;;;;;;3.58;2.42;;;20.00;65.90;;;;;;10130290;28;20394;-59
2022/07/09 05:02:39;;;;;;;8.07;2.67;;;20.00;66.10;;;;;;10131234;28;20029;-58
2022/07/09 05:07:30;;;;;;;3.78;2.30;;;20.00;66.30;;;;;;10124147;28;20109;-56
2022/07/09 05:12:21;;;;;;;2.70;2.22;;;20.10;66.20;;;;;;10128060;28;20043;-58
2022/07/09 05:17:11;;;;;;;3.80;2.58;;;20.20;66.40;;;;;;10129521;28;20043;-55
2022/07/09 05:22:02;;;;;;;4.45;2.63;;;20.30;66.40;;;;;;10128576;28;20116;-56
2022/07/09 05:26:53;;;;;;;4.57;2.88;;;20.40;66.40;;;;;;10130292;28;20024;-59
2022/07/09 05:31:44;;;;;;;3.67;3.17;;;20.60;66.40;;;;;;10130579;28;20044;-56
2022/07/09 05:36:34;;;;;;;8.88;3.30;;;20.80;66.20;;;;;;10138770;28;20108;-58
2022/07/09 05:41:25;;;;;;;6.85;3.47;;;20.80;66.20;;;;;;10138301;28;20025;-56
2022/07/09 05:46:16;;;;;;;6.40;3.40;;;20.80;66.60;;;;;;10138548;28;20039;-58
2022/07/09 05:51:07;;;;;;;8.05;4.88;;;20.70;66.80;;;;;;10136123;28;20506;-57
2022/07/09 05:55:58;;;;;;;4.72;3.40;;;20.70;66.70;;;;;;10137079;28;20107;-57
2022/07/09 06:00:48;;;;;;;5.70;3.80;;;21.00;66.20;;;;;;10137033;28;20031;-55
2022/07/09 06:05:39;;;;;;;6.65;2.72;;;21.40;65.90;;;;;;10137466;28;20079;-55
2022/07/09 06:10:30;;;;;;;3.15;2.42;;;21.30;65.90;;;;;;10137003;28;20017;-54
2022/07/09 06:15:21;;;;;;;4.82;2.75;;;21.40;65.90;;;;;;10137553;28;20640;-56
2022/07/09 06:20:11;;;;;;;5.35;2.40;;;21.40;65.90;;;;;;10135370;28;20096;-57
2022/07/09 06:25:02;;;;;;;5.72;2.42;;;21.40;65.90;;;;;;10136076;28;20485;-55
2022/07/09 06:29:53;;;;;;;3.45;2.45;;;21.50;65.80;;;;;;10136785;28;20051;-57
2022/07/09 06:34:43;;;;;;;3.60;2.42;;;21.60;65.70;;;;;;10136774;28;20024;-57
2022/07/09 06:39:47;;;;;;;4.28;2.92;;;21.50;65.80;;;;;;10133049;28;20411;-55
2022/07/09 06:44:38;;;;;;;3.25;2.55;;;21.50;66.00;;;;;;10134810;28;20028;-58
2022/07/09 06:49:28;;;;;;;3.28;2.28;;;21.50;65.90;;;;;;10122312;28;20484;-57
2022/07/09 06:54:19;;;;;;;3.65;2.30;;;21.60;66.00;;;;;;10130771;28;20086;-58
2022/07/09 06:59:10;;;;;;;5.03;2.45;;;21.70;65.80;;;;;;10114343;28;20017;-58
2022/07/09 07:04:00;;;;;;;3.58;2.47;;;22.00;65.70;;;;;;10131837;28;20374;-57
2022/07/09 07:08:51;;;;;;;3.63;2.78;;;22.00;65.70;;;;;;10134240;28;20035;-60
2022/07/09 07:13:42;;;;;;;8.07;2.80;;;22.00;65.70;;;;;;10134455;28;20123;-56
2022/07/09 07:18:32;;;;;;;6.45;3.90;;;22.10;66.00;;;;;;10133950;28;20037;-55
2022/07/09 07:23:23;;;;;;;3.55;2.65;;;22.20;66.10;;;;;;10128089;28;20016;-57
2022/07/09 07:28:14;;;;;;;4.75;4.18;;;22.40;65.80;;;;;;10134675;28;20028;-57
2022/07/09 07:33:04;;;;;;;4.05;3.38;;;22.40;66.00;;;;;;10133855;28;20052;-57
2022/07/09 07:37:57;;;;;;;3.17;2.53;;;22.50;66.10;;;;;;10133256;28;20036;-57
2022/07/09 07:42:47;;;;;;;4.30;2.20;;;22.80;66.00;;;;;;10133896;28;20489;-57
2022/07/09 07:47:38;;;;;;;4.50;2.10;;;22.80;66.10;;;;;;10133491;28;20027;-57
2022/07/09 07:52:29;;;;;;;2.63;2.10;;;22.80;66.20;;;;;;10133087;28;20123;-58
2022/07/09 07:57:20;;;;;;;6.65;3.97;;;22.90;66.20;;;;;;10127078;28;20463;-58
2022/07/09 08:02:10;;;;;;;5.32;2.67;;;22.90;66.10;;;;;;10132596;28;20031;-57
2022/07/09 08:07:01;;;;;;;3.85;2.55;;;23.10;66.20;;;;;;10132200;28;20131;-59
2022/07/09 08:11:51;;;;;;;4.32;1.92;;;23.00;66.20;;;;;;10132955;28;20115;-57
2022/07/09 08:16:42;;;;;;;5.60;2.25;;;23.20;66.30;;;;;;10132121;28;20060;-58
2022/07/09 08:21:33;;;;;;;6.25;2.22;;;23.20;66.20;;;;;;10126362;28;20060;-54
2022/07/09 08:26:24;;;;;;;8.98;4.57;;;23.50;65.90;;;;;;10132214;28;20028;-56
2022/07/09 08:31:19;;;;;;;6.82;2.92;;;23.70;65.50;;;;;;10131224;28;20403;-56
2022/07/09 08:36:10;;;;;;;4.85;2.00;;;24.00;65.30;;;;;;10132019;28;20273;-58
2022/07/09 08:41:03;;;;;;;5.03;2.63;;;24.00;65.80;;;;;;10131942;28;20262;-58
2022/07/09 08:45:56;;;;;;;5.97;2.80;;;24.00;65.30;;;;;;10132180;28;20055;-57
2022/07/09 08:50:48;;;;;;;8.18;3.42;;;24.10;65.30;;;;;;10131667;28;20098;-55
2022/07/09 08:55:40;;;;;;;3.45;2.60;;;24.20;65.00;;;;;;10131371;28;20020;-56
2022/07/09 09:00:32;;;;;;;4.25;2.78;;;24.30;65.00;;;;;;10131562;28;20012;-59
2022/07/09 09:05:22;;;;;;;7.00;2.63;;;24.30;65.00;;;;;;10131682;28;20082;-58
2022/07/09 09:10:27;;;;;;;3.85;2.05;;;24.30;64.60;;;;;;10137653;28;20090;-58
2022/07/09 09:15:19;;;;;;;3.90;2.25;;;24.40;64.20;;;;;;10139847;28;20024;-60
2022/07/09 09:20:14;;;;;;;4.72;2.50;;;24.30;63.90;;;;;;10135105;28;20025;-59
2022/07/09 09:25:05;;;;;;;2.17;1.90;;;24.30;63.60;;;;;;10120311;28;20024;-59
2022/07/09 09:29:59;;;;;;;3.85;1.65;;;24.50;63.30;;;;;;10138342;28;20147;-58
2022/07/09 09:34:50;;;;;;;4.60;1.67;;;24.80;62.50;;;;;;10138760;28;20044;-58
2022/07/09 09:39:51;;;;;;;1.77;1.40;;;24.60;62.00;;;;;;10119770;28;20040;-59
2022/07/09 09:44:42;;;;;;;5.15;1.83;;;24.60;61.40;;;;;;10137890;28;20028;-59
2022/07/09 09:49:36;;;;;;;2.17;1.50;;;24.60;61.20;;;;;;10120124;28;20117;-61
2022/07/09 09:54:28;;;;;;;2.22;1.85;;;24.70;60.90;;;;;;10139160;28;20017;-62
2022/07/09 09:59:18;;;;;;;3.20;1.65;;;24.80;60.40;;;;;;10131912;28;20034;-63
2022/07/09 10:04:11;;;;;;;1.63;1.20;;;25.10;60.00;;;;;;10139906;28;20023;-61
2022/07/09 10:09:03;;;;;;;2.00;1.55;;;25.20;59.50;;;;;;10137250;28;20066;-64
2022/07/09 10:13:56;;;;;;;4.68;2.13;;;25.30;59.90;;;;;;10137164;28;20039;-62
2022/07/09 10:18:53;;;;;;;2.85;1.92;;;25.40;59.10;;;;;;10129114;28;20623;-63
2022/07/09 10:23:50;;;;;;;1.88;1.48;;;25.40;59.00;;;;;;10129813;28;20462;-64
2022/07/09 10:28:41;;;;;;;2.70;1.20;;;25.50;58.80;;;;;;10136885;28;20068;-62
2022/07/09 10:33:34;;;;;;;1.83;0.90;;;25.50;58.50;;;;;;10136439;28;20037;-62
2022/07/09 10:38:36;;;;;;;3.00;1.40;;;25.50;58.40;;;;;;10135691;28;20039;-62
2022/07/09 10:43:50;;;;;;;2.00;1.20;;;25.60;57.70;;;;;;10136223;28;20028;-61
2022/07/09 10:48:42;;;;;;;;;;;25.80;57.00;;;;;;10136430;28;20490;-64
2022/07/09 10:53:32;;;;;;;2.78;1.45;;;26.10;56.90;;;;;;10136405;28;20007;-65
2022/07/09 10:58:25;;;;;;;0.77;0.77;;;26.40;56.90;;;;;;10135572;28;20120;-61
2022/07/09 11:03:23;;;;;;;4.32;1.10;;;26.30;56.80;;;;;;10135489;28;20032;-60
2022/07/09 11:08:14;;;;;;;2.65;1.60;;;26.30;56.40;;;;;;10136064;28;20454;-65
2022/07/09 11:13:06;;;;;;;1.73;1.45;;;26.20;56.30;;;;;;10137823;28;20059;-63
2022/07/09 11:17:59;;;;;;;1.75;1.10;;;25.80;56.70;;;;;;10135716;28;20510;-65
2022/07/09 11:22:50;;;;;;;3.70;1.60;;;25.80;56.40;;;;;;10128793;28;20445;-66
2022/07/09 11:27:41;;;;;;;2.28;1.10;;;25.80;56.30;;;;;;10134224;28;20033;-61
2022/07/09 11:32:32;;;;;;;1.58;1.15;;;26.00;56.20;;;;;;10133571;28;20414;-65
2022/07/09 11:37:27;;;;;;;2.38;1.58;;;26.10;55.90;;;;;;10133151;28;20024;-63
2022/07/09 11:42:18;;;;;;;2.15;1.50;;;26.20;56.00;;;;;;10111943;28;20111;-63
2022/07/09 11:47:10;;;;;;;1.80;1.10;;;26.20;55.90;;;;;;10133256;28;20469;-66
2022/07/09 11:52:01;;;;;;;2.65;1.65;;;26.20;56.00;;;;;;10132970;28;20044;-60
2022/07/09 11:56:52;;;;;;;2.08;1.33;;;26.50;55.50;;;;;;10133198;28;20402;-67
2022/07/09 12:01:43;;;;;;;2.30;1.38;;;26.70;55.40;;;;;;10132839;28;20037;-59
2022/07/09 12:06:33;;;;;;;2.97;1.48;;;26.30;55.70;;;;;;10133515;28;20034;-65
2022/07/09 12:11:28;;;;;;;2.75;1.48;;;26.20;55.90;;;;;;10133749;28;20025;-64
2022/07/09 12:16:19;;;;;;;4.55;1.45;;;26.70;55.80;;;;;;10133762;28;20048;-59
2022/07/09 12:21:09;;;;;;;3.90;1.10;;;26.90;55.50;;;;;;10129218;28;20021;-60
2022/07/09 12:26:00;;;;;;;1.42;1.30;;;26.70;55.40;;;;;;10143825;28;20402;-65
2022/07/09 12:30:51;;;;;;;1.38;1.02;;;27.10;55.60;;;;;;10139941;28;20048;-62
2022/07/09 12:35:41;;;;;;;2.03;1.20;;;27.70;55.90;;;;;;10136298;28;20032;-66
2022/07/09 12:40:32;;;;;;;2.45;1.45;;;28.40;55.80;;;;;;10131648;28;20526;-67
2022/07/09 12:45:23;;;;;;;2.03;1.42;;;28.90;55.90;;;;;;10132661;28;20008;-66
2022/07/09 12:50:13;;;;;;;1.50;1.30;;;29.30;55.70;;;;;;10131790;28;20036;-62
2022/07/09 12:55:05;;;;;;;2.45;1.25;;;30.10;55.30;;;;;;10131974;28;20041;-61
2022/07/09 12:59:56;;;;;;;;;;;30.80;54.00;;;;;;10113850;28;20558;-63
2022/07/09 13:04:47;;;;;;;2.42;1.70;;;30.90;52.60;;;;;;10131602;28;19999;-62
2022/07/09 13:09:37;;;;;;;3.13;2.10;;;30.70;53.50;;;;;;10132501;28;20414;-61
2022/07/09 13:14:28;;;;;;;3.78;1.95;;;31.30;52.40;;;;;;10132054;28;20028;-61
2022/07/09 13:19:19;;;;;;;3.35;1.40;;;32.00;51.10;;;;;;10130860;28;20023;-58
2022/07/09 13:24:09;;;;;;;2.22;1.08;;;31.50;50.80;;;;;;10108803;28;20028;-62
2022/07/09 13:29:00;;;;;;;2.60;1.40;;;32.20;49.80;;;;;;10130905;28;20036;-60
2022/07/09 13:33:51;;;;;;;1.48;1.17;;;33.40;48.90;;;;;;10130729;28;20068;-64
2022/07/09 13:38:41;;;;;;;2.67;1.43;;;33.70;48.60;;;;;;10130408;28;20024;-64
2022/07/09 13:43:32;;;;;;;1.25;1.15;;;34.90;47.70;;;;;;10130395;28;20153;-63
2022/07/09 13:48:23;;;;;;;2.65;1.45;;;35.90;46.70;;;;;;10130836;28;20093;-63
2022/07/09 13:53:14;;;;;;;3.15;1.10;;;34.70;46.80;;;;;;10131206;28;20175;-60
2022/07/09 13:58:05;;;;;;;1.77;1.00;;;33.80;47.50;;;;;;10137237;28;20123;-62
2022/07/09 14:02:55;;;;;;;1.45;1.13;;;32.70;47.80;;;;;;10137654;28;20031;-62
2022/07/09 14:07:46;;;;;;;3.40;1.67;;;31.50;48.20;;;;;;10137637;28;20047;-60
2022/07/09 14:12:37;;;;;;;2.58;1.08;;;32.90;47.50;;;;;;10137338;28;20090;-64
2022/07/09 14:17:28;;;;;;;2.47;1.08;;;35.20;46.00;;;;;;10118527;28;20028;-63
2022/07/09 14:22:19;;;;;;;3.03;0.93;;;36.80;45.20;;;;;;10114065;28;20027;-64
2022/07/09 14:27:10;;;;;;;1.98;1.10;;;37.00;44.70;;;;;;10137358;28;20471;-61
2022/07/09 14:32:00;;;;;;;1.60;1.23;;;36.40;44.40;;;;;;10137459;28;20063;-63
2022/07/09 14:36:52;;;;;;;1.13;1.02;;;33.30;46.00;;;;;;10137221;28;20051;-63
2022/07/09 14:41:43;;;;;;;0.82;0.80;;;34.10;45.50;;;;;;10137342;28;20541;-63
2022/07/09 14:46:34;;;;;;;1.33;0.90;;;35.70;44.00;;;;;;10118568;28;20028;-59
2022/07/09 14:51:25;;;;;;;;;;;36.60;42.80;;;;;;10136911;28;20114;-59
2022/07/09 14:56:15;;;;;;;2.30;0.80;;;36.60;42.40;;;;;;10136348;28;19912;-58
2022/07/09 15:01:06;;;;;;;2.13;0.90;;;35.70;42.90;;;;;;10135995;28;20052;-59
2022/07/09 15:05:57;;;;;;;3.40;0.90;;;36.20;42.50;;;;;;10135811;28;20259;-60
2022/07/09 15:10:47;;;;;;;3.10;1.03;;;33.70;43.70;;;;;;10135245;28;20295;-59
2022/07/09 15:15:38;;;;;;;2.90;1.38;;;34.60;42.40;;;;;;10135313;28;20025;-59
2022/07/09 15:20:29;;;;;;;1.60;0.97;;;34.10;42.80;;;;;;10128706;28;20028;-60
2022/07/09 15:25:20;;;;;;;1.60;0.97;;;34.70;42.20;;;;;;10134695;28;20107;-58
2022/07/09 15:30:11;;;;;;;2.73;1.17;;;34.30;42.20;;;;;;10134035;28;20051;-59
2022/07/09 15:35:02;;;;;;;1.67;1.27;;;32.60;42.90;;;;;;10133934;28;20031;-61
2022/07/09 15:39:53;;;;;;;1.98;1.00;;;31.30;44.00;;;;;;10135103;28;20021;-60
2022/07/09 15:44:44;;;;;;;1.48;1.20;;;31.00;44.20;;;;;;10134548;28;20201;-58
2022/07/09 15:49:34;;;;;;;2.33;1.35;;;33.30;42.90;;;;;;10134135;28;20132;-59
2022/07/09 15:54:25;;;;;;;1.63;0.77;;;35.40;41.60;;;;;;10133433;28;20028;-59
2022/07/09 15:59:16;;;;;;;3.00;1.20;;;35.90;41.50;;;;;;10133038;28;20028;-57
2022/07/09 16:04:07;;;;;;;1.40;1.20;;;35.30;42.00;;;;;;10115656;28;20487;-60
2022/07/09 16:08:57;;;;;;;2.72;1.30;;;34.50;42.30;;;;;;10114630;28;20040;-57
2022/07/09 16:13:48;;;;;;;1.73;1.20;;;33.50;42.90;;;;;;10132862;28;20041;-62
2022/07/09 16:18:39;;;;;;;1.37;1.27;;;34.90;41.00;;;;;;10131060;28;20012;-61
2022/07/09 16:23:29;;;;;;;2.87;1.13;;;36.60;40.30;;;;;;10127497;28;20044;-59
2022/07/09 16:28:20;;;;;;;1.80;1.27;;;35.90;40.40;;;;;;10132565;28;20078;-60
2022/07/09 16:33:11;;;;;;;4.13;1.30;;;36.50;39.60;;;;;;10132350;28;20465;-58
2022/07/09 16:38:01;;;;;;;2.10;1.50;;;37.10;39.20;;;;;;10132669;28;20024;-60
2022/07/09 16:42:52;;;;;;;2.10;1.40;;;38.60;38.60;;;;;;10132504;28;20403;-61
2022/07/09 16:47:43;;;;;;;2.17;1.73;;;37.20;39.30;;;;;;10132315;28;20029;-57
2022/07/09 16:52:34;;;;;;;1.50;1.37;;;37.80;38.80;;;;;;10131850;28;20510;-60
2022/07/09 16:57:25;;;;;;;3.75;2.00;;;38.50;37.80;;;;;;10130626;28;20023;-59
2022/07/09 17:02:16;;;;;;;3.72;1.83;;;38.00;37.60;;;;;;10132521;28;20351;-60
2022/07/09 17:07:07;;;;;;;2.10;1.50;;;37.70;37.50;;;;;;10131450;28;20532;-59
2022/07/09 17:11:57;;;;;;;8.23;2.70;;;37.40;37.60;;;;;;10131973;28;20037;-57
2022/07/09 17:16:48;;;;;;;2.93;1.83;;;37.00;37.70;;;;;;10131428;28;20035;-58
2022/07/09 17:21:39;;;;;;;5.07;2.05;;;36.50;38.40;;;;;;10132988;28;20099;-59
2022/07/09 17:26:29;;;;;;;4.30;2.15;;;37.60;37.10;;;;;;10131592;28;20024;-59
2022/07/09 17:31:20;;;;;;;2.38;1.42;;;35.90;38.10;;;;;;10137487;28;20546;-61
2022/07/09 17:36:11;;;;;;;2.60;1.95;;;35.30;38.30;;;;;;10138083;28;20024;-62
2022/07/09 17:41:02;;;;;;;2.38;1.73;;;36.40;37.80;;;;;;10138327;28;20028;-59
2022/07/09 17:45:52;;;;;;;6.30;1.67;;;37.50;37.30;;;;;;10138434;28;20491;-61
2022/07/09 17:50:43;;;;;;;1.40;1.08;;;37.30;37.10;;;;;;10137989;28;20048;-58
2022/07/09 17:55:34;;;;;;;3.67;1.90;;;37.20;37.30;;;;;;10135424;28;20032;-60
2022/07/09 18:00:30;;;;;;;2.47;1.30;;;36.60;37.20;;;;;;10137505;28;20029;-59
2022/07/09 18:05:22;;;;;;;4.65;1.75;;;34.80;38.50;;;;;;10138238;28;20063;-59
2022/07/09 18:10:13;;;;;;;2.25;1.45;;;32.60;40.00;;;;;;10137074;28;20039;-63
2022/07/09 18:15:05;;;;;;;4.63;1.52;;;31.40;40.90;;;;;;10137208;28;20098;-60
2022/07/09 18:19:55;;;;;;;1.77;1.25;;;30.40;41.70;;;;;;10137624;28;20036;-66
2022/07/09 18:24:46;;;;;;;2.55;1.52;;;30.00;42.00;;;;;;10137608;28;20020;-66
2022/07/09 18:29:37;;;;;;;6.10;2.00;;;29.60;42.40;;;;;;10137549;28;20182;-61
2022/07/09 18:34:27;;;;;;;5.47;2.17;;;29.60;42.60;;;;;;10129555;28;20345;-62
2022/07/09 18:39:19;;;;;;;4.60;2.03;;;29.40;42.90;;;;;;10119697;28;20522;-62
2022/07/09 18:44:10;;;;;;;4.55;1.80;;;29.40;43.20;;;;;;10138198;28;20475;-63
2022/07/09 18:49:01;;;;;;;8.45;3.95;;;29.30;43.50;;;;;;10132866;28;20513;-61
2022/07/09 18:53:51;;;;;;;3.67;1.85;;;29.10;43.80;;;;;;10128296;28;20289;-60
2022/07/09 18:58:42;;;;;;;4.88;2.72;;;29.00;44.10;;;;;;10136001;28;20029;-63
2022/07/09 19:03:32;;;;;;;9.30;3.33;;;29.10;44.20;;;;;;10135841;28;20029;-62
2022/07/09 19:08:23;;;;;;;4.22;2.00;;;28.90;45.20;;;;;;10139078;28;20494;-60
2022/07/09 19:13:14;;;;;;;5.47;3.10;;;28.80;44.80;;;;;;10135461;28;20032;-59
2022/07/09 19:18:04;;;;;;;6.40;2.13;;;28.80;45.00;;;;;;10134727;28;20029;-62
2022/07/09 19:22:55;;;;;;;2.10;1.70;;;28.50;45.30;;;;;;10135000;28;20071;-63
2022/07/09 19:27:46;;;;;;;2.55;1.98;;;28.40;45.50;;;;;;10128468;28;20624;-60
2022/07/09 19:37:45;;;;;;;8.40;3.70;;;28.20;45.90;;;;;;10134190;28;20094;-59
2022/07/09 19:42:36;;;;;;;4.18;1.98;;;27.90;46.40;;;;;;10116364;28;20399;-58
2022/07/09 19:47:27;;;;;;;4.40;2.33;;;27.80;46.60;;;;;;10132601;28;20024;-59
2022/07/09 19:52:17;;;;;;;5.47;2.42;;;27.80;46.90;;;;;;10133975;28;20055;-63
2022/07/09 19:57:08;;;;;;;3.08;1.67;;;27.90;47.10;;;;;;10133453;28;20114;-61
2022/07/09 20:01:59;;;;;;;4.22;1.67;;;27.70;47.30;;;;;;10134239;28;20034;-63
2022/07/09 20:06:49;;;;;;;2.25;1.65;;;27.60;47.50;;;;;;10134010;28;20107;-62
2022/07/09 20:11:40;;;;;;;4.75;3.28;;;27.60;47.70;;;;;;10124040;28;20045;-64
2022/07/09 20:16:30;;;;;;;7.18;2.10;;;27.60;47.80;;;;;;10130200;28;20024;-60
2022/07/09 20:21:21;;;;;;;7.85;3.13;;;27.70;48.00;;;;;;10126209;28;20036;-61
2022/07/09 20:26:12;;;;;;;5.53;2.38;;;27.60;48.00;;;;;;10125007;28;20029;-59
2022/07/09 20:31:02;;;;;;;5.63;2.50;;;27.60;48.40;;;;;;10132963;28;20052;-62
2022/07/09 20:35:53;;;;;;;2.72;1.77;;;27.60;49.10;;;;;;10132003;28;20024;-65
2022/07/09 20:40:44;;;;;;;4.22;1.80;;;27.50;48.60;;;;;;10132552;28;20029;-60
2022/07/09 20:45:35;;;;;;;3.78;1.70;;;27.40;48.90;;;;;;10132250;28;20029;-65
2022/07/09 20:50:26;;;;;;;3.90;1.60;;;27.30;49.40;;;;;;10132176;28;20029;-62
2022/07/09 20:55:17;;;;;;;2.25;1.40;;;26.50;51.70;;;;;;10114195;28;20024;-59
2022/07/09 21:00:08;;;;;;;2.72;1.95;;;26.30;53.00;;;;;;10132059;28;20355;-59
2022/07/09 21:04:59;;;;;;;4.72;1.67;;;26.00;53.60;;;;;;10131256;28;20043;-59
2022/07/09 21:09:49;;;;;;;3.33;1.45;;;25.80;54.40;;;;;;10135561;28;20025;-61
2022/07/09 21:14:40;;;;;;;2.70;1.60;;;25.60;55.40;;;;;;10140499;28;20039;-60
2022/07/09 21:19:31;;;;;;;3.60;1.83;;;25.40;55.90;;;;;;10140017;28;20089;-62
2022/07/09 21:24:22;;;;;;;2.42;1.75;;;25.30;56.60;;;;;;10130374;28;20069;-60
2022/07/09 21:29:12;;;;;;;2.28;2.00;;;25.30;57.00;;;;;;10138777;28;20052;-61
2022/07/09 21:34:03;;;;;;;4.25;1.98;;;25.10;57.60;;;;;;10139194;28;20152;-65
2022/07/09 21:38:54;;;;;;;3.55;2.17;;;25.10;58.00;;;;;;10120210;28;20150;-62
2022/07/09 21:43:45;;;;;;;2.40;1.80;;;25.00;58.60;;;;;;10138985;28;20402;-59
2022/07/09 21:48:36;;;;;;;2.00;1.80;;;24.80;59.40;;;;;;10120412;28;20063;-65
2022/07/09 21:53:26;;;;;;;2.35;1.98;;;24.60;60.10;;;;;;10138267;28;20449;-63
2022/07/09 21:58:17;;;;;;;2.90;1.90;;;24.70;60.40;;;;;;10138185;28;20027;-64
2022/07/09 22:03:08;;;;;;;1.98;1.77;;;24.50;60.90;;;;;;10138531;28;20119;-63
2022/07/09 22:07:58;;;;;;;3.33;2.25;;;24.40;61.50;;;;;;10128153;28;20287;-63
2022/07/09 22:12:49;;;;;;;3.38;2.20;;;24.30;62.00;;;;;;10137124;28;20032;-64
2022/07/09 22:17:40;;;;;;;2.15;1.80;;;24.20;62.40;;;;;;10135288;28;20561;-61
2022/07/09 22:22:30;;;;;;;2.42;1.73;;;23.90;63.30;;;;;;10136757;28;20032;-62
2022/07/09 22:27:21;;;;;;;4.95;2.95;;;23.90;63.50;;;;;;10136616;28;20021;-63
2022/07/09 22:32:12;;;;;;;2.58;1.65;;;24.00;63.10;;;;;;10137028;28;20044;-61
2022/07/09 22:37:03;;;;;;;3.65;2.20;;;23.90;63.40;;;;;;10136285;28;20024;-61
2022/07/09 22:41:54;;;;;;;3.42;1.70;;;23.80;63.80;;;;;;10118227;28;20036;-63
2022/07/09 22:46:44;;;;;;;2.95;1.98;;;23.80;64.20;;;;;;10135573;28;20025;-64
2022/07/09 22:51:35;;;;;;;2.95;1.92;;;23.60;64.70;;;;;;10135996;28;20056;-59
2022/07/09 22:56:25;;;;;;;2.88;2.17;;;23.50;65.10;;;;;;10134955;28;20070;-61
2022/07/09 23:01:16;;;;;;;2.53;1.85;;;23.50;65.00;;;;;;10135474;28;20395;-60
2022/07/09 23:06:07;;;;;;;3.30;2.05;;;23.40;65.60;;;;;;10125912;28;20013;-60
2022/07/09 23:10:58;;;;;;;3.28;2.05;;;23.20;67.00;;;;;;10135191;28;20036;-59
2022/07/09 23:15:48;;;;;;;2.83;1.77;;;23.20;67.30;;;;;;10135289;28;20402;-59
2022/07/09 23:20:39;;;;;;;3.13;2.13;;;23.20;66.70;;;;;;10135210;28;20028;-59
2022/07/09 23:25:30;;;;;;;2.05;1.85;;;23.10;67.20;;;;;;10136918;28;20013;-62
2022/07/09 23:30:20;;;;;;;2.20;2.00;;;23.20;67.30;;;;;;10138011;28;20059;-61
2022/07/09 23:35:11;;;;;;;2.47;2.28;;;23.10;67.70;;;;;;10135290;28;20026;-63
2022/07/09 23:40:02;;;;;;;3.45;1.83;;;23.00;68.10;;;;;;10141119;28;20031;-61
2022/07/09 23:50:58;;;;;;;4.55;2.95;;;23.00;68.60;;;;;;9973603;28;20556;-60
2022/07/09 23:55:49;;;;;;;2.30;1.98;;;22.90;68.60;;;;;;10134039;28;20066;-62
